createdAt,value
2024-03-10T00:00:26.136Z,28.61
2024-03-10T00:02:53.915Z,30.04
2024-03-10T00:05:22.815Z,29.43
2024-03-10T00:07:49.721Z,29.15
2024-03-10T00:10:16.767Z,29.59
2024-03-10T00:12:50.987Z,29.35
2024-03-10T00:15:23.957Z,29.76
2024-03-10T00:17:51.841Z,29.75
2024-03-10T00:20:22.189Z,30.24
2024-03-10T00:22:52.222Z,29.64
2024-03-10T00:25:19.959Z,29.49
2024-03-10T00:27:46.847Z,30.58
2024-03-10T00:30:14.296Z,30.59
2024-03-10T00:32:41.157Z,29.23
2024-03-10T00:35:08.336Z,30.16
2024-03-10T00:37:35.919Z,30.07
2024-03-10T00:40:06.669Z,29.85
2024-03-10T00:42:33.576Z,28.96
2024-03-10T00:45:00.454Z,29.54
2024-03-10T00:47:27.378Z,29.45
2024-03-10T00:49:54.251Z,30.29
2024-03-10T00:52:20.985Z,29.11
2024-03-10T00:54:47.706Z,29.83
2024-03-10T00:57:15.572Z,30.28
2024-03-10T00:59:43.396Z,30.36
2024-03-10T01:02:10.380Z,29.00
2024-03-10T01:04:37.152Z,29.80
2024-03-10T01:07:04.764Z,29.08
2024-03-10T01:09:31.693Z,30.07
2024-03-10T01:11:58.631Z,29.55
2024-03-10T01:14:25.730Z,29.69
2024-03-10T01:16:52.533Z,30.23
2024-03-10T01:19:19.284Z,29.84
2024-03-10T01:21:47.121Z,29.64
2024-03-10T01:24:14.563Z,29.23
2024-03-10T01:26:41.301Z,30.26
2024-03-10T01:29:09.674Z,30.57
2024-03-10T01:31:36.628Z,30.04
2024-03-10T01:34:04.188Z,30.38
2024-03-10T01:36:31.329Z,30.85
2024-03-10T01:38:58.099Z,30.57
2024-03-10T01:41:26.728Z,30.70
2024-03-10T01:43:53.925Z,30.57
2024-03-10T01:46:23.205Z,31.25
2024-03-10T01:48:52.112Z,31.39
2024-03-10T01:51:22.066Z,31.27
2024-03-10T01:53:49.311Z,31.91
2024-03-10T01:56:18.358Z,32.68
2024-03-10T01:58:46.357Z,32.58
2024-03-10T02:01:17.429Z,32.50
2024-03-10T02:03:49.859Z,31.94
2024-03-10T02:06:17.296Z,32.77
2024-03-10T02:08:45.869Z,32.24
2024-03-10T02:11:13.229Z,32.86
2024-03-10T02:13:40.282Z,33.11
2024-03-10T02:16:08.283Z,34.18
2024-03-10T02:18:36.496Z,33.17
2024-03-10T02:21:10.546Z,33.76
2024-03-10T02:23:43.636Z,33.84
2024-03-10T02:26:10.921Z,33.18
2024-03-10T02:28:47.864Z,33.65
2024-03-10T02:31:33.225Z,34.35
2024-03-10T02:34:18.364Z,34.58
2024-03-10T02:37:03.813Z,34.05
2024-03-10T02:39:48.645Z,34.48
2024-03-10T02:42:34.050Z,34.80
2024-03-10T02:45:19.065Z,34.97
2024-03-10T02:47:45.914Z,34.83
2024-03-10T02:50:12.788Z,34.90
2024-03-10T02:52:39.732Z,35.83
2024-03-10T02:55:07.964Z,35.37
2024-03-10T02:57:34.665Z,35.52
2024-03-10T03:00:01.737Z,35.26
2024-03-10T03:02:30.833Z,34.81
2024-03-10T03:04:57.987Z,35.80
2024-03-10T03:07:24.780Z,36.44
2024-03-10T03:09:51.546Z,36.69
2024-03-10T03:12:18.322Z,36.51
2024-03-10T03:14:45.062Z,36.60
2024-03-10T03:17:11.833Z,36.68
2024-03-10T03:19:38.582Z,37.49
2024-03-10T03:22:06.031Z,37.07
2024-03-10T03:24:32.727Z,37.45
2024-03-10T03:26:59.705Z,37.57
2024-03-10T03:29:27.781Z,38.21
2024-03-10T03:31:55.394Z,36.97
2024-03-10T03:34:22.604Z,38.39
2024-03-10T03:36:49.413Z,37.33
2024-03-10T03:39:16.485Z,36.85
2024-03-10T03:41:43.164Z,38.72
2024-03-10T03:44:10.524Z,38.30
2024-03-10T03:46:37.425Z,38.13
2024-03-10T03:49:05.120Z,37.67
2024-03-10T03:51:31.842Z,39.04
2024-03-10T03:53:58.535Z,37.98
2024-03-10T03:56:25.343Z,38.34
2024-03-10T03:58:52.253Z,37.76
2024-03-10T04:01:19.290Z,37.93
2024-03-10T04:03:46.060Z,37.75
2024-03-10T04:06:15.664Z,38.06
2024-03-10T04:08:43.123Z,38.12
2024-03-10T04:11:10.027Z,37.21
2024-03-10T04:13:36.847Z,37.04
2024-03-10T04:16:03.865Z,36.93
2024-03-10T04:18:30.613Z,37.15
2024-03-10T04:20:57.364Z,38.50
2024-03-10T04:23:24.398Z,37.34
2024-03-10T04:25:52.873Z,37.62
2024-03-10T04:28:19.596Z,36.37
2024-03-10T04:30:46.705Z,37.30
2024-03-10T04:33:13.929Z,35.99
2024-03-10T04:35:40.758Z,36.68
2024-03-10T04:38:07.567Z,36.53
2024-03-10T04:40:34.361Z,37.35
2024-03-10T04:43:01.111Z,37.68
2024-03-10T04:45:28.663Z,36.28
2024-03-10T04:47:55.674Z,36.59
2024-03-10T04:50:22.513Z,35.60
2024-03-10T04:52:49.402Z,36.07
2024-03-10T04:55:16.292Z,36.46
2024-03-10T04:57:43.072Z,36.14
2024-03-10T05:00:11.431Z,36.07
2024-03-10T05:02:38.286Z,36.29
2024-03-10T05:05:05.540Z,36.01
2024-03-10T05:07:32.350Z,36.25
2024-03-10T05:09:59.626Z,36.25
2024-03-10T05:12:26.455Z,36.56
2024-03-10T05:14:53.186Z,36.30
2024-03-10T05:17:19.900Z,36.48
2024-03-10T05:19:46.696Z,36.24
2024-03-10T05:22:14.127Z,36.24
2024-03-10T05:24:44.340Z,36.46
2024-03-10T05:27:11.412Z,35.72
2024-03-10T05:29:38.378Z,36.23
2024-03-10T05:32:05.850Z,35.65
2024-03-10T05:34:41.032Z,36.62
2024-03-10T05:37:08.084Z,36.77
2024-03-10T05:39:34.828Z,36.42
2024-03-10T05:42:03.020Z,35.73
2024-03-10T05:44:29.739Z,35.83
2024-03-10T05:46:56.519Z,35.82
2024-03-10T05:49:23.311Z,35.28
2024-03-10T05:51:50.172Z,36.15
2024-03-10T05:54:16.873Z,37.03
2024-03-10T05:56:43.567Z,35.82
2024-03-10T05:59:10.936Z,35.09
2024-03-10T06:01:37.754Z,35.48
2024-03-10T06:04:06.042Z,35.18
2024-03-10T06:06:32.829Z,35.96
2024-03-10T06:08:59.624Z,35.66
2024-03-10T06:11:26.530Z,36.15
2024-03-10T06:13:53.371Z,35.90
2024-03-10T06:16:23.287Z,35.51
2024-03-10T06:18:57.080Z,36.42
2024-03-10T06:21:44.115Z,35.55
2024-03-10T06:24:30.070Z,34.68
2024-03-10T06:26:57.199Z,35.51
2024-03-10T06:29:25.318Z,35.50
2024-03-10T06:31:52.998Z,34.48
2024-03-10T06:34:23.234Z,34.79
2024-03-10T06:36:50.518Z,35.32
2024-03-10T06:39:20.875Z,35.99
2024-03-10T06:41:48.282Z,34.92
2024-03-10T06:44:20.376Z,34.31
2024-03-10T06:46:47.326Z,34.47
2024-03-10T06:49:15.570Z,34.85
2024-03-10T06:51:42.550Z,34.75
2024-03-10T06:54:09.602Z,35.24
2024-03-10T06:56:37.782Z,35.15
2024-03-10T06:59:04.612Z,33.62
2024-03-10T07:01:32.117Z,33.75
2024-03-10T07:03:59.759Z,33.66
2024-03-10T07:06:28.039Z,33.41
2024-03-10T07:08:55.521Z,33.27
2024-03-10T07:11:23.112Z,33.21
2024-03-10T07:13:50.368Z,34.07
2024-03-10T07:16:17.741Z,34.75
2024-03-10T07:18:44.472Z,33.75
2024-03-10T07:21:11.455Z,33.40
2024-03-10T07:23:38.223Z,32.96
2024-03-10T07:26:05.081Z,32.78
2024-03-10T07:28:32.736Z,34.15
2024-03-10T07:31:00.931Z,33.81
2024-03-10T07:33:27.779Z,32.66
2024-03-10T07:35:54.501Z,32.27
2024-03-10T07:38:21.844Z,32.13
2024-03-10T07:40:52.436Z,32.01
2024-03-10T07:43:21.584Z,31.86
2024-03-10T07:45:48.963Z,31.89
2024-03-10T07:48:17.336Z,31.90
2024-03-10T07:50:44.528Z,31.58
2024-03-10T07:53:11.571Z,30.91
2024-03-10T07:55:38.339Z,31.70
2024-03-10T07:58:08.214Z,31.08
2024-03-10T08:00:35.392Z,31.01
2024-03-10T08:03:02.186Z,30.94
2024-03-10T08:05:31.331Z,30.42
2024-03-10T08:07:58.396Z,29.86
2024-03-10T08:10:25.258Z,28.84
2024-03-10T08:12:53.478Z,28.69
2024-03-10T08:15:21.156Z,29.02
2024-03-10T08:17:48.224Z,29.30
2024-03-10T08:20:17.032Z,29.33
2024-03-10T08:22:46.411Z,29.67
2024-03-10T08:25:13.969Z,29.09
2024-03-10T08:27:41.688Z,29.22
2024-03-10T08:30:11.614Z,29.60
2024-03-10T08:32:39.579Z,29.55
2024-03-10T08:35:14.303Z,28.79
2024-03-10T08:37:46.417Z,28.25
2024-03-10T08:40:14.294Z,28.43
2024-03-10T08:42:45.119Z,27.96
2024-03-10T08:45:14.116Z,28.43
2024-03-10T08:47:43.951Z,27.63
2024-03-10T08:50:12.345Z,27.61
2024-03-10T08:52:40.534Z,27.56
2024-03-10T08:55:14.923Z,27.76
2024-03-10T08:57:43.068Z,27.66
2024-03-10T09:00:11.723Z,27.95
2024-03-10T09:02:40.065Z,27.38
2024-03-10T09:05:08.963Z,27.87
2024-03-10T09:07:37.087Z,27.54
2024-03-10T09:10:05.509Z,27.90
2024-03-10T09:12:34.256Z,27.91
2024-03-10T09:15:01.827Z,27.29
2024-03-10T09:17:28.641Z,27.19
2024-03-10T09:19:55.509Z,27.64
2024-03-10T09:22:22.201Z,27.34
2024-03-10T09:24:51.871Z,27.77
2024-03-10T09:27:20.584Z,27.62
2024-03-10T09:29:48.551Z,27.16
2024-03-10T09:32:17.227Z,27.75
2024-03-10T09:34:44.477Z,27.18
2024-03-10T09:37:11.302Z,26.83
2024-03-10T09:39:38.217Z,27.13
2024-03-10T09:42:05.192Z,27.80
2024-03-10T09:44:34.597Z,27.23
2024-03-10T09:47:02.661Z,27.84
2024-03-10T09:49:29.857Z,27.71
2024-03-10T09:51:58.370Z,27.57
2024-03-10T09:54:26.701Z,27.43
2024-03-10T09:56:54.463Z,27.76
2024-03-10T09:59:44.554Z,27.37
2024-03-10T10:02:32.198Z,27.68
2024-03-10T10:05:04.067Z,27.51
2024-03-10T10:07:30.961Z,27.54
2024-03-10T10:10:00.228Z,27.40
2024-03-10T10:12:31.567Z,27.55
2024-03-10T10:14:58.350Z,27.41
2024-03-10T10:17:26.536Z,27.80
2024-03-10T10:19:54.185Z,27.12
2024-03-10T10:22:25.108Z,27.27
2024-03-10T10:25:07.831Z,28.10
2024-03-10T10:27:50.325Z,27.25
2024-03-10T10:30:27.677Z,27.76
2024-03-10T10:33:05.970Z,28.21
2024-03-10T10:35:39.894Z,27.34
2024-03-10T10:38:14.597Z,27.45
2024-03-10T10:40:42.859Z,28.06
2024-03-10T10:43:13.478Z,27.92
2024-03-10T10:45:40.400Z,27.76
2024-03-10T10:48:11.446Z,27.83
2024-03-10T10:50:43.859Z,27.87
2024-03-10T10:53:13.127Z,27.61
2024-03-10T10:55:41.969Z,27.09
2024-03-10T10:58:13.184Z,27.51
2024-03-10T11:00:44.129Z,26.86
2024-03-10T11:03:18.318Z,27.15
2024-03-10T11:06:09.707Z,26.57
2024-03-10T11:08:38.905Z,27.65
2024-03-10T11:11:07.092Z,27.26
2024-03-10T11:13:35.353Z,27.93
2024-03-10T11:16:07.459Z,27.45
2024-03-10T11:18:36.963Z,27.45
2024-03-10T11:21:07.252Z,27.39
2024-03-10T11:23:40.539Z,27.28
2024-03-10T11:26:09.855Z,28.70
2024-03-10T11:28:56.384Z,27.39
2024-03-10T11:31:28.746Z,27.96
2024-03-10T11:34:00.332Z,27.12
2024-03-10T11:36:36.713Z,27.87
2024-03-10T11:39:08.693Z,27.21
2024-03-10T11:41:37.529Z,27.32
2024-03-10T11:44:04.926Z,26.83
2024-03-10T11:46:34.480Z,27.69
2024-03-10T11:49:03.055Z,27.08
2024-03-10T11:51:39.349Z,27.21
2024-03-10T11:54:12.615Z,27.36
2024-03-10T11:56:40.732Z,27.02
2024-03-10T11:59:08.503Z,26.93
2024-03-10T12:01:35.540Z,27.47
2024-03-10T12:04:08.248Z,27.42
2024-03-10T12:06:35.192Z,27.63
2024-03-10T12:09:02.249Z,28.01
2024-03-10T12:11:29.029Z,27.13
2024-03-10T12:13:55.896Z,28.63
2024-03-10T12:16:23.551Z,28.55
2024-03-10T12:18:51.156Z,27.22
2024-03-10T12:21:19.560Z,28.07
2024-03-10T12:23:47.548Z,28.09
2024-03-10T12:26:16.800Z,28.92
2024-03-10T12:28:48.485Z,29.02
2024-03-10T12:31:17.762Z,29.17
2024-03-10T12:33:51.144Z,29.17
2024-03-10T12:36:18.647Z,28.63
2024-03-10T12:38:45.389Z,29.15
2024-03-10T12:41:21.458Z,28.76
2024-03-10T12:43:48.305Z,28.58
2024-03-10T12:46:21.173Z,29.11
2024-03-10T12:48:49.135Z,29.30
2024-03-10T12:51:16.587Z,28.93
2024-03-10T12:53:44.225Z,28.85
2024-03-10T12:56:12.840Z,30.02
2024-03-10T12:58:41.109Z,30.46
2024-03-10T13:01:08.664Z,30.95
2024-03-10T13:03:36.015Z,30.32
2024-03-10T13:06:04.323Z,29.80
2024-03-10T13:08:31.773Z,29.73
2024-03-10T13:10:59.961Z,30.25
2024-03-10T13:13:27.849Z,30.33
2024-03-10T13:15:56.073Z,30.68
2024-03-10T13:18:23.807Z,31.31
2024-03-10T13:20:50.864Z,32.24
2024-03-10T13:23:17.776Z,31.92
2024-03-10T13:25:44.555Z,31.60
2024-03-10T13:28:11.504Z,31.05
2024-03-10T13:30:39.971Z,30.68
2024-03-10T13:33:07.185Z,31.54
2024-03-10T13:35:34.917Z,31.27
2024-03-10T13:38:05.295Z,31.55
2024-03-10T13:40:32.535Z,32.00
2024-03-10T13:42:59.919Z,33.87
2024-03-10T13:45:35.207Z,33.75
2024-03-10T13:48:07.399Z,33.47
2024-03-10T13:50:34.974Z,34.56
2024-03-10T13:53:01.847Z,34.16
2024-03-10T13:55:28.839Z,34.38
2024-03-10T13:57:56.003Z,36.25
2024-03-10T14:00:26.466Z,35.96
2024-03-10T14:02:54.551Z,35.78
2024-03-10T14:05:23.092Z,35.66
2024-03-10T14:07:49.915Z,36.60
2024-03-10T14:10:18.895Z,36.74
2024-03-10T14:12:46.077Z,36.48
2024-03-10T14:15:15.800Z,36.68
2024-03-10T14:17:45.425Z,36.93
2024-03-10T14:20:16.894Z,37.92
2024-03-10T14:22:51.792Z,37.36
2024-03-10T14:25:19.805Z,37.67
2024-03-10T14:27:52.610Z,37.26
2024-03-10T14:30:26.299Z,37.44
2024-03-10T14:32:55.744Z,36.49
2024-03-10T14:35:25.934Z,37.54
2024-03-10T14:37:54.567Z,38.73
2024-03-10T14:40:23.162Z,37.86
2024-03-10T14:42:53.129Z,37.77
2024-03-10T14:45:21.167Z,37.73
2024-03-10T14:47:50.692Z,37.75
2024-03-10T14:50:21.124Z,36.96
2024-03-10T14:52:50.194Z,36.14
2024-03-10T14:55:18.193Z,35.96
2024-03-10T14:57:48.877Z,35.82
2024-03-10T15:00:39.371Z,35.61
2024-03-10T15:03:14.751Z,34.09
2024-03-10T15:05:43.957Z,34.18
2024-03-10T15:08:14.908Z,34.04
2024-03-10T15:10:47.103Z,33.41
2024-03-10T15:13:17.361Z,32.89
2024-03-10T15:15:44.806Z,32.16
2024-03-10T15:18:11.675Z,32.10
2024-03-10T15:20:45.442Z,31.70
2024-03-10T15:23:14.299Z,32.55
2024-03-10T15:25:45.010Z,32.54
2024-03-10T15:28:12.710Z,33.19
2024-03-10T15:30:40.784Z,32.41
2024-03-10T15:33:07.762Z,32.34
2024-03-10T15:35:34.637Z,32.53
2024-03-10T15:38:02.016Z,32.63
2024-03-10T15:40:30.431Z,32.85
2024-03-10T15:42:57.811Z,32.67
2024-03-10T15:45:24.594Z,33.70
2024-03-10T15:47:58.168Z,33.36
2024-03-10T15:50:26.459Z,33.44
2024-03-10T15:52:54.354Z,33.47
2024-03-10T15:55:23.156Z,33.26
2024-03-10T15:57:51.838Z,33.23
2024-03-10T16:00:22.402Z,32.82
2024-03-10T16:03:03.003Z,32.74
2024-03-10T16:05:32.736Z,33.36
2024-03-10T16:07:59.921Z,33.26
2024-03-10T16:10:27.710Z,34.37
2024-03-10T16:12:54.829Z,33.60
2024-03-10T16:15:30.567Z,33.56
2024-03-10T16:17:57.892Z,34.31
2024-03-10T16:20:26.398Z,33.28
2024-03-10T16:22:56.471Z,33.87
2024-03-10T16:25:23.562Z,34.35
2024-03-10T16:27:51.035Z,34.39
2024-03-10T16:30:17.995Z,33.80
2024-03-10T16:32:45.912Z,34.55
2024-03-10T16:35:13.172Z,34.70
2024-03-10T16:37:43.488Z,34.99
2024-03-10T16:40:13.919Z,34.63
2024-03-10T16:42:43.789Z,35.21
2024-03-10T16:45:13.313Z,34.55
2024-03-10T16:47:46.120Z,35.06
2024-03-10T16:50:14.378Z,35.06
2024-03-10T16:52:41.207Z,35.06
2024-03-10T16:55:08.833Z,36.12
2024-03-10T16:57:39.809Z,36.59
2024-03-10T17:00:14.791Z,36.57
2024-03-10T17:02:45.954Z,36.08
2024-03-10T17:05:16.455Z,36.33
2024-03-10T17:07:43.819Z,35.85
2024-03-10T17:10:12.527Z,36.72
2024-03-10T17:12:40.818Z,37.09
2024-03-10T17:15:13.865Z,36.64
2024-03-10T17:17:43.902Z,37.06
2024-03-10T17:20:15.684Z,38.25
2024-03-10T17:22:42.720Z,36.54
2024-03-10T17:25:10.925Z,37.78
2024-03-10T17:27:38.520Z,37.90
2024-03-10T17:30:07.798Z,37.11
2024-03-10T17:32:36.207Z,38.31
2024-03-10T17:35:03.463Z,37.78
2024-03-10T17:37:30.876Z,38.83
2024-03-10T17:39:57.585Z,38.07
2024-03-10T17:42:25.199Z,38.08
2024-03-10T17:44:52.041Z,37.05
2024-03-10T17:47:20.031Z,38.23
2024-03-10T17:49:47.730Z,37.23
2024-03-10T17:52:14.498Z,37.27
2024-03-10T17:54:41.181Z,37.91
2024-03-10T17:57:11.339Z,37.92
2024-03-10T17:59:38.282Z,38.06
2024-03-10T18:02:06.553Z,38.66
2024-03-10T18:04:36.283Z,38.83
2024-03-10T18:07:04.101Z,38.92
2024-03-10T18:09:31.160Z,37.71
2024-03-10T18:11:58.044Z,37.44
2024-03-10T18:14:27.071Z,37.93
2024-03-10T18:16:54.088Z,38.79
2024-03-10T18:19:23.115Z,38.51
2024-03-10T18:21:51.064Z,39.19
2024-03-10T18:24:19.118Z,38.72
2024-03-10T18:26:48.782Z,37.79
2024-03-10T18:29:16.865Z,38.44
2024-03-10T18:31:44.228Z,39.36
2024-03-10T18:34:11.751Z,39.01
2024-03-10T18:36:39.916Z,38.25
2024-03-10T18:39:14.287Z,39.38
2024-03-10T18:41:41.724Z,38.45
2024-03-10T18:44:09.312Z,39.03
2024-03-10T18:46:37.278Z,39.03
2024-03-10T18:49:05.407Z,38.80
2024-03-10T18:51:32.429Z,39.11
2024-03-10T18:53:59.281Z,38.63
2024-03-10T18:56:28.398Z,38.13
2024-03-10T18:58:56.940Z,38.49
2024-03-10T19:01:23.992Z,39.81
2024-03-10T19:03:51.398Z,39.29
2024-03-10T19:06:19.787Z,38.99
2024-03-10T19:08:47.874Z,39.78
2024-03-10T19:11:14.953Z,40.06
2024-03-10T19:13:42.734Z,39.73
2024-03-10T19:16:11.861Z,39.89
2024-03-10T19:18:39.033Z,40.51
2024-03-10T19:21:07.341Z,40.97
2024-03-10T19:23:35.522Z,40.53
2024-03-10T19:26:05.061Z,41.52
2024-03-10T19:28:33.815Z,41.07
2024-03-10T19:31:05.505Z,41.01
2024-03-10T19:33:33.702Z,41.49
2024-03-10T19:36:02.594Z,41.33
2024-03-10T19:38:29.698Z,41.56
2024-03-10T19:40:57.271Z,41.77
2024-03-10T19:43:24.093Z,41.34
2024-03-10T19:45:50.891Z,40.83
2024-03-10T19:48:20.766Z,41.18
2024-03-10T19:50:50.076Z,41.28
2024-03-10T19:53:20.728Z,41.59
2024-03-10T19:55:51.224Z,40.92
2024-03-10T19:58:17.926Z,41.97
2024-03-10T20:00:44.636Z,41.92
2024-03-10T20:03:11.426Z,41.83
2024-03-10T20:05:39.204Z,40.47
2024-03-10T20:08:06.371Z,41.67
2024-03-10T20:10:33.165Z,40.79
2024-03-10T20:13:00.687Z,41.57
2024-03-10T20:15:28.312Z,41.32
2024-03-10T20:17:56.386Z,41.96
2024-03-10T20:20:24.644Z,42.06
2024-03-10T20:23:01.240Z,42.51
2024-03-10T20:25:28.814Z,42.11
2024-03-10T20:27:59.952Z,43.86
2024-03-10T20:30:31.884Z,42.89
2024-03-10T20:32:59.708Z,42.39
2024-03-10T20:35:27.746Z,42.74
2024-03-10T20:37:54.927Z,43.10
2024-03-10T20:40:21.846Z,43.39
2024-03-10T20:42:48.873Z,42.77
2024-03-10T20:45:16.294Z,42.88
2024-03-10T20:47:50.205Z,43.55
2024-03-10T20:50:23.541Z,42.55
2024-03-10T20:52:51.838Z,42.79
2024-03-10T20:55:18.800Z,42.98
2024-03-10T20:57:45.625Z,43.28
2024-03-10T21:00:12.729Z,43.37
2024-03-10T21:02:39.701Z,42.75
2024-03-10T21:05:08.013Z,43.00
2024-03-10T21:07:35.825Z,43.21
2024-03-10T21:10:06.446Z,43.27
2024-03-10T21:12:33.258Z,43.28
2024-03-10T21:15:00.469Z,42.59
2024-03-10T21:17:27.253Z,43.45
2024-03-10T21:19:53.984Z,42.98
2024-03-10T21:22:23.966Z,43.17
2024-03-10T21:24:50.908Z,42.11
2024-03-10T21:27:17.625Z,42.39
2024-03-10T21:29:45.180Z,42.64
2024-03-10T21:32:11.959Z,43.06
2024-03-10T21:34:38.890Z,43.05
2024-03-10T21:37:05.828Z,43.68
2024-03-10T21:39:32.716Z,43.67
2024-03-10T21:41:59.470Z,43.59
2024-03-10T21:44:26.300Z,42.85
2024-03-10T21:46:53.049Z,43.23
2024-03-10T21:49:19.872Z,43.26
2024-03-10T21:51:46.634Z,43.84
2024-03-10T21:54:13.533Z,43.40
2024-03-10T21:56:41.797Z,43.82
2024-03-10T21:59:08.869Z,44.96
2024-03-10T22:01:36.209Z,44.70
2024-03-10T22:04:05.815Z,45.24
2024-03-10T22:06:35.452Z,44.68
2024-03-10T22:09:02.310Z,44.89
2024-03-10T22:11:29.289Z,43.56
2024-03-10T22:13:56.555Z,45.01
2024-03-10T22:16:23.494Z,44.82
2024-03-10T22:18:50.190Z,44.22
2024-03-10T22:21:17.823Z,44.57
2024-03-10T22:23:44.681Z,45.07
2024-03-10T22:26:11.764Z,44.86
2024-03-10T22:28:39.133Z,44.35
2024-03-10T22:31:06.645Z,44.37
2024-03-10T22:33:33.424Z,44.46
2024-03-10T22:36:00.763Z,45.03
2024-03-10T22:38:27.525Z,45.45
2024-03-10T22:40:54.245Z,46.27
2024-03-10T22:43:24.526Z,45.72
2024-03-10T22:45:52.207Z,46.16
2024-03-10T22:48:19.494Z,44.77
2024-03-10T22:50:46.450Z,45.74
2024-03-10T22:53:13.400Z,44.96
2024-03-10T22:55:41.469Z,45.76
2024-03-10T22:58:08.656Z,45.14
2024-03-10T23:00:38.326Z,45.70
2024-03-10T23:03:07.981Z,45.92
2024-03-10T23:05:36.370Z,46.48
2024-03-10T23:08:06.633Z,46.47
2024-03-10T23:10:35.819Z,47.33
2024-03-10T23:13:05.187Z,46.89
2024-03-10T23:15:33.244Z,47.49
2024-03-10T23:18:00.361Z,47.10
2024-03-10T23:20:27.890Z,47.72
2024-03-10T23:23:01.363Z,46.66
2024-03-10T23:25:31.346Z,45.92
2024-03-10T23:27:59.661Z,45.21
2024-03-10T23:30:27.663Z,45.67
2024-03-10T23:32:57.251Z,46.57
2024-03-10T23:35:24.853Z,46.36
2024-03-10T23:37:51.798Z,46.24
2024-03-10T23:40:24.345Z,46.31
2024-03-10T23:42:52.899Z,45.36
2024-03-10T23:45:22.059Z,45.77
2024-03-10T23:47:52.698Z,46.71
2024-03-10T23:50:21.475Z,45.81
2024-03-10T23:52:51.850Z,45.84
2024-03-10T23:55:18.838Z,46.61
2024-03-10T23:57:45.597Z,46.02
